Wind Surf — C6IO6 — position and weather

sailwx.info

Track history (hours):
 
Tides and Currents Weather Stations Pressure Air Temp Water Temp Dewpoint Dewpoint Depression Visibility Wind Speed Wind Dir Waves Ship Positions

Wind Surf

Operator: Holland America Line

Last reported at 2019-Feb-16 02:58 UTC. Time now 2019-Feb-16 03:03 UTC.
Position N 17°54' W 062°59'.

Length 187 m; draft 5.5 m.

Type: Passenger vessel. MMSI: 309242000.

Date/timePositionNaut miles runAvg speedWind from/ knotsBaromVisibWave heightAir tempDewpointWater temp
2019-Feb-16 02:58N 17°54' W 062°59'4 8.2
2019-Feb-16 02:28N 17°54' W 062°54'0 0.0
2019-Feb-15 10:40N 17°54' W 062°54'2 7.6
2019-Feb-15 10:26N 17°55' W 062°56'3 7.4
2019-Feb-15 10:00N 17°56' W 062°59'4 7.3
2019-Feb-15 09:26N 17°56' W 063°04'4 7.3
2019-Feb-15 08:56N 17°58' W 063°07'4 7.5
2019-Feb-15 08:28N 17°59' W 063°11'4 7.5
2019-Feb-15 07:59N 17°60' W 063°14'4 7.9
2019-Feb-15 07:30N 18°01' W 063°18'4 7.1
2019-Feb-15 06:59N 18°02' W 063°22'3 7.2
2019-Feb-15 06:30N 18°03' W 063°25'4 7.3
2019-Feb-15 06:00N 18°04' W 063°29'4 7.1
2019-Feb-15 05:30N 18°05' W 063°32'4 7.3
2019-Feb-15 04:59N 18°06' W 063°36'51 7.1
2019-Feb-14 21:48N 18°23' W 064°27'2 7.2
2019-Feb-14 21:30N 18°25' W 064°28'3 0.3
2019-Feb-14 10:53N 18°28' W 064°28'4 9.4
2019-Feb-14 10:29N 18°30' W 064°31'5 9.0
2019-Feb-14 09:59N 18°34' W 064°34'4 8.9
2019-Feb-14 09:30N 18°34' W 064°39'4 8.3
2019-Feb-14 09:00N 18°30' W 064°41'5 9.6
2019-Feb-14 08:30N 18°26' W 064°42'3 5.4
2019-Feb-14 07:59N 18°26' W 064°45'0 0.1
2019-Feb-14 07:29N 18°26' W 064°45'0 0.0
2019-Feb-14 06:59N 18°26' W 064°45'0 0.0
2019-Feb-14 06:23N 18°26' W 064°45'0 0.1
2019-Feb-14 05:59N 18°26' W 064°45'0 0.1
2019-Feb-14 05:29N 18°26' W 064°45'0 0.2
2019-Feb-14 04:59N 18°26' W 064°45'0 0.1
2019-Feb-14 04:29N 18°26' W 064°45'0 0.0
2019-Feb-14 03:41N 18°26' W 064°45'0 0.0
2019-Feb-14 02:41N 18°26' W 064°45'0 0.0
2019-Feb-14 02:23N 18°26' W 064°45'0 0.0
2019-Feb-14 01:59N 18°26' W 064°45'0 0.0
2019-Feb-14 01:23N 18°26' W 064°45'0 0.2
2019-Feb-14 00:59N 18°26' W 064°45'0 0.0
2019-Feb-14 00:23N 18°26' W 064°45'0 0.0
2019-Feb-13 23:53N 18°26' W 064°45'0 0.1
2019-Feb-13 23:23N 18°26' W 064°45'0 0.0
2019-Feb-13 22:53N 18°26' W 064°45'0 0.0
2019-Feb-13 22:17N 18°26' W 064°45'0 0.0
2019-Feb-13 21:59N 18°26' W 064°45'0 0.1
2019-Feb-13 21:29N 18°26' W 064°45'0 0.1
2019-Feb-13 20:59N 18°26' W 064°45'0 0.0
2019-Feb-13 20:23N 18°26' W 064°45'0 0.1
2019-Feb-13 19:47N 18°26' W 064°45'0 0.0
2019-Feb-13 19:29N 18°26' W 064°45'0 0.0
2019-Feb-13 18:53N 18°26' W 064°45'0 0.1
2019-Feb-13 18:29N 18°26' W 064°45'0 0.1
2019-Feb-13 17:59N 18°26' W 064°45'0 0.1
2019-Feb-13 17:29N 18°26' W 064°45'0 0.0
2019-Feb-13 16:59N 18°26' W 064°45'0 0.0
2019-Feb-13 16:11N 18°26' W 064°45'0 0.0
2019-Feb-13 15:53N 18°26' W 064°45'0 0.1
2019-Feb-13 15:17N 18°26' W 064°45'0 0.1
2019-Feb-13 14:53N 18°26' W 064°45'0 0.0
2019-Feb-13 14:17N 18°26' W 064°45'0 0.0
2019-Feb-13 13:59N 18°26' W 064°45'0 0.1
2019-Feb-13 13:29N 18°26' W 064°45'0 0.0
2019-Feb-13 12:59N 18°26' W 064°45'0 0.1
2019-Feb-13 12:29N 18°26' W 064°45'0 0.1
2019-Feb-13 11:59N 18°26' W 064°45'0 0.2
2019-Feb-13 11:29N 18°26' W 064°45'1 1.9
2019-Feb-13 11:00N 18°25' W 064°45'3 6.4
2019-Feb-13 10:30N 18°23' W 064°43'5 9.6
2019-Feb-13 10:00N 18°22' W 064°38'3 3.1
2019-Feb-13 09:04N 18°19' W 064°38'0 0.0
2019-Feb-13 07:16N 18°19' W 064°38'0 0.0
2019-Feb-13 06:58N 18°19' W 064°38'0 0.0
2019-Feb-13 06:28N 18°19' W 064°38'0 0.0
2019-Feb-13 04:55N 18°19' W 064°38'0 0.0
2019-Feb-13 03:43N 18°19' W 064°38'0 0.0
2019-Feb-13 03:13N 18°19' W 064°38'0 0.1
2019-Feb-13 02:46N 18°19' W 064°38'0 0.0
2019-Feb-13 01:01N 18°19' W 064°38'0 0.1
2019-Feb-13 00:43N 18°19' W 064°38'0 0.0
2019-Feb-12 23:43N 18°19' W 064°38'0 0.0
2019-Feb-12 23:25N 18°19' W 064°38'0 0.0
2019-Feb-12 22:13N 18°19' W 064°38'0 0.0
2019-Feb-12 21:07N 18°19' W 064°38'0 0.0
2019-Feb-12 20:49N 18°19' W 064°38'0 0.1
2019-Feb-12 20:01N 18°19' W 064°38'0 0.2
2019-Feb-12 19:49N 18°19' W 064°38'1 0.3
2019-Feb-12 17:57N 18°20' W 064°38'4 8.2
2019-Feb-12 17:30N 18°22' W 064°36'2 0.3
2019-Feb-12 10:42N 18°25' W 064°36'1 4.1
2019-Feb-12 10:26N 18°25' W 064°35'3 6.9
2019-Feb-12 10:00N 18°24' W 064°32'4 5.7
2019-Feb-12 09:19N 18°20' W 064°32'61 6.5
2019-Feb-12 00:01N 17°55' W 063°34'4 6.5
2019-Feb-11 23:28N 17°53' W 063°30'5 6.6
2019-Feb-11 22:40N 17°51' W 063°25'1 6.6
2019-Feb-11 22:27N 17°51' W 063°23'4 6.8
2019-Feb-11 21:52N 17°50' W 063°19'3 6.7
2019-Feb-11 21:29N 17°50' W 063°17'4 6.6
2019-Feb-11 20:56N 17°49' W 063°13'4 6.8
2019-Feb-11 20:18N 17°48' W 063°09'3 4.0
2019-Feb-11 19:34N 17°47' W 063°06'0 2.6
2019-Feb-11 19:27N 17°46' W 063°06'2 4.3
2019-Feb-11 18:58N 17°45' W 063°04'2 4.8
2019-Feb-11 18:29N 17°45' W 063°01'2 4.8
2019-Feb-11 17:59N 17°44' W 062°59'3 4.9
2019-Feb-11 17:28N 17°44' W 062°56'3 4.8
2019-Feb-11 16:54N 17°44' W 062°53'2 4.9
2019-Feb-11 16:29N 17°44' W 062°51'3 5.0
2019-Feb-11 15:52N 17°43' W 062°48'7 0.2
2019-Feb-10 01:22N 17°47' W 062°54'4 9.3
2019-Feb-10 00:59N 17°49' W 062°57'5 9.4
2019-Feb-10 00:27N 17°53' W 063°01'4 9.2
2019-Feb-10 00:01N 17°55' W 063°04'4 8.0
2019-Feb-09 23:27N 17°60' W 063°05'3 2.5
2019-Feb-09 22:23N 18°01' W 063°03'0 0.0
2019-Feb-09 21:41N 18°01' W 063°03'0 0.0
2019-Feb-09 20:53N 18°01' W 063°03'0 0.0
2019-Feb-09 19:56N 18°01' W 063°03'0 0.0
2019-Feb-09 17:38N 18°01' W 063°03'0 0.0
2019-Feb-09 17:11N 18°01' W 063°03'0 0.0
2019-Feb-09 16:41N 18°01' W 063°03'0 0.0
2019-Feb-09 15:11N 18°01' W 063°03'0 0.0
2019-Feb-09 14:20N 18°01' W 063°03'0 0.0
2019-Feb-09 13:59N 18°01' W 063°03'0 0.0
2019-Feb-09 13:05N 18°01' W 063°03'0 0.0
2019-Feb-09 12:14N 18°01' W 063°03'0 0.0
2019-Feb-09 11:59N 18°01' W 063°03'0 0.0
2019-Feb-09 10:35N 18°01' W 063°03'0 0.0
2019-Feb-09 09:53N 18°01' W 063°03'0 0.8
2019-Feb-09 09:19N 18°00' W 063°03'5 6.8
2019-Feb-09 08:36N 17°59' W 063°08'1 7.9
2019-Feb-09 08:26N 17°59' W 063°09'5 8.0
2019-Feb-09 07:52N 17°58' W 063°14'3 8.0
2019-Feb-09 07:28N 17°57' W 063°17'5 7.9
2019-Feb-09 06:51N 17°56' W 063°22'3 8.0
2019-Feb-09 06:30N 17°56' W 063°25'4 7.4
2019-Feb-09 05:55N 17°52' W 063°27'4 8.3
2019-Feb-09 05:28N 17°51' W 063°23'4 8.1
2019-Feb-09 05:00N 17°51' W 063°19'4 8.1
2019-Feb-09 04:30N 17°52' W 063°15'4 8.2
2019-Feb-09 04:00N 17°52' W 063°10'5 8.2
2019-Feb-09 03:23N 17°53' W 063°05'5 8.5
2019-Feb-09 02:49N 17°54' W 063°00'3 8.4
2019-Feb-09 02:29N 17°54' W 062°57'5 3.9
2019-Feb-09 01:18N 17°54' W 062°52'0 0.0
2019-Feb-09 00:36N 17°54' W 062°52'0 0.0
2019-Feb-08 23:23N 17°54' W 062°52'0 0.0
2019-Feb-08 22:38N 17°54' W 062°52'0 0.0
2019-Feb-08 21:51N 17°54' W 062°52'0 0.0
2019-Feb-08 20:51N 17°54' W 062°52'0 0.0
2019-Feb-08 19:56N 17°54' W 062°52'0 0.0
2019-Feb-08 16:59N 17°54' W 062°52'0 0.0
2019-Feb-08 12:17N 17°54' W 062°52'0 0.0
2019-Feb-08 11:50N 17°54' W 062°52'0 0.0
2019-Feb-08 11:29N 17°54' W 062°52'1 1.4
2019-Feb-08 10:39N 17°54' W 062°53'4 5.6
2019-Feb-08 10:01N 17°51' W 062°55'0 5.0
2019-Feb-08 09:59N 17°51' W 062°55'3 5.7
2019-Feb-08 09:26N 17°48' W 062°57'3 6.2
2019-Feb-08 08:54N 17°45' W 062°58'3 6.4
2019-Feb-08 08:29N 17°43' W 062°59'3 6.5
2019-Feb-08 07:58N 17°40' W 063°01'3 6.6
2019-Feb-08 07:27N 17°37' W 063°03'3 6.6
2019-Feb-08 07:00N 17°34' W 063°04'3 6.6
2019-Feb-08 06:29N 17°31' W 063°05'3 6.0
2019-Feb-08 05:58N 17°28' W 063°05'8 7.0
2019-Feb-08 04:45N 17°22' W 062°59'2 7.2
2019-Feb-08 04:26N 17°20' W 062°58'3 7.3
2019-Feb-08 04:00N 17°18' W 062°55'12 0.7
2019-Feb-07 10:24N 17°13' W 062°44'3 8.1
2019-Feb-07 09:58N 17°10' W 062°43'4 8.1
2019-Feb-07 09:29N 17°06' W 062°42'4 8.1
2019-Feb-07 09:00N 17°02' W 062°40'4 8.1
2019-Feb-07 08:30N 16°58' W 062°39'5 8.9
2019-Feb-07 07:56N 16°54' W 062°37'4 9.6
2019-Feb-07 07:29N 16°50' W 062°35'7 9.8
2019-Feb-07 06:44N 16°44' W 062°30'6 9.7
2019-Feb-07 06:05N 16°39' W 062°27'  
Track history (hours):
 
Tides and Currents Weather Stations Pressure Air Temp Water Temp Dewpoint Dewpoint Depression Visibility Wind Speed Wind Dir Waves Ship Positions

Wind Surf

Operator: Holland America Line

Last reported at 2019-Feb-16 02:58 UTC. Time now 2019-Feb-16 03:03 UTC.
Position N 17°54' W 062°59'.

Length 187 m; draft 5.5 m.

Type: Passenger vessel. MMSI: 309242000.

Date/timePositionNaut miles runAvg speedWind from/ knotsBaromVisibWave heightAir tempDewpointWater temp
2019-Feb-16 02:58N 17°54' W 062°59'4 8.2
2019-Feb-16 02:28N 17°54' W 062°54'0 0.0
2019-Feb-15 10:40N 17°54' W 062°54'2 7.6
2019-Feb-15 10:26N 17°55' W 062°56'3 7.4
2019-Feb-15 10:00N 17°56' W 062°59'4 7.3
2019-Feb-15 09:26N 17°56' W 063°04'4 7.3
2019-Feb-15 08:56N 17°58' W 063°07'4 7.5
2019-Feb-15 08:28N 17°59' W 063°11'4 7.5
2019-Feb-15 07:59N 17°60' W 063°14'4 7.9
2019-Feb-15 07:30N 18°01' W 063°18'4 7.1
2019-Feb-15 06:59N 18°02' W 063°22'3 7.2
2019-Feb-15 06:30N 18°03' W 063°25'4 7.3
2019-Feb-15 06:00N 18°04' W 063°29'4 7.1
2019-Feb-15 05:30N 18°05' W 063°32'4 7.3
2019-Feb-15 04:59N 18°06' W 063°36'51 7.1
2019-Feb-14 21:48N 18°23' W 064°27'2 7.2
2019-Feb-14 21:30N 18°25' W 064°28'3 0.3
2019-Feb-14 10:53N 18°28' W 064°28'4 9.4
2019-Feb-14 10:29N 18°30' W 064°31'5 9.0
2019-Feb-14 09:59N 18°34' W 064°34'4 8.9
2019-Feb-14 09:30N 18°34' W 064°39'4 8.3
2019-Feb-14 09:00N 18°30' W 064°41'5 9.6
2019-Feb-14 08:30N 18°26' W 064°42'3 5.4
2019-Feb-14 07:59N 18°26' W 064°45'0 0.1
2019-Feb-14 07:29N 18°26' W 064°45'0 0.0
2019-Feb-14 06:59N 18°26' W 064°45'0 0.0
2019-Feb-14 06:23N 18°26' W 064°45'0 0.1
2019-Feb-14 05:59N 18°26' W 064°45'0 0.1
2019-Feb-14 05:29N 18°26' W 064°45'0 0.2
2019-Feb-14 04:59N 18°26' W 064°45'0 0.1
2019-Feb-14 04:29N 18°26' W 064°45'0 0.0
2019-Feb-14 03:41N 18°26' W 064°45'0 0.0
2019-Feb-14 02:41N 18°26' W 064°45'0 0.0
2019-Feb-14 02:23N 18°26' W 064°45'0 0.0
2019-Feb-14 01:59N 18°26' W 064°45'0 0.0
2019-Feb-14 01:23N 18°26' W 064°45'0 0.2
2019-Feb-14 00:59N 18°26' W 064°45'0 0.0
2019-Feb-14 00:23N 18°26' W 064°45'0 0.0
2019-Feb-13 23:53N 18°26' W 064°45'0 0.1
2019-Feb-13 23:23N 18°26' W 064°45'0 0.0
2019-Feb-13 22:53N 18°26' W 064°45'0 0.0
2019-Feb-13 22:17N 18°26' W 064°45'0 0.0
2019-Feb-13 21:59N 18°26' W 064°45'0 0.1
2019-Feb-13 21:29N 18°26' W 064°45'0 0.1
2019-Feb-13 20:59N 18°26' W 064°45'0 0.0
2019-Feb-13 20:23N 18°26' W 064°45'0 0.1
2019-Feb-13 19:47N 18°26' W 064°45'0 0.0
2019-Feb-13 19:29N 18°26' W 064°45'0 0.0
2019-Feb-13 18:53N 18°26' W 064°45'0 0.1
2019-Feb-13 18:29N 18°26' W 064°45'0 0.1
2019-Feb-13 17:59N 18°26' W 064°45'0 0.1
2019-Feb-13 17:29N 18°26' W 064°45'0 0.0
2019-Feb-13 16:59N 18°26' W 064°45'0 0.0
2019-Feb-13 16:11N 18°26' W 064°45'0 0.0
2019-Feb-13 15:53N 18°26' W 064°45'0 0.1
2019-Feb-13 15:17N 18°26' W 064°45'0 0.1
2019-Feb-13 14:53N 18°26' W 064°45'0 0.0
2019-Feb-13 14:17N 18°26' W 064°45'0 0.0
2019-Feb-13 13:59N 18°26' W 064°45'0 0.1
2019-Feb-13 13:29N 18°26' W 064°45'0 0.0
2019-Feb-13 12:59N 18°26' W 064°45'0 0.1
2019-Feb-13 12:29N 18°26' W 064°45'0 0.1
2019-Feb-13 11:59N 18°26' W 064°45'0 0.2
2019-Feb-13 11:29N 18°26' W 064°45'1 1.9
2019-Feb-13 11:00N 18°25' W 064°45'3 6.4
2019-Feb-13 10:30N 18°23' W 064°43'5 9.6
2019-Feb-13 10:00N 18°22' W 064°38'3 3.1
2019-Feb-13 09:04N 18°19' W 064°38'0 0.0
2019-Feb-13 07:16N 18°19' W 064°38'0 0.0
2019-Feb-13 06:58N 18°19' W 064°38'0 0.0
2019-Feb-13 06:28N 18°19' W 064°38'0 0.0
2019-Feb-13 04:55N 18°19' W 064°38'0 0.0
2019-Feb-13 03:43N 18°19' W 064°38'0 0.0
2019-Feb-13 03:13N 18°19' W 064°38'0 0.1
2019-Feb-13 02:46N 18°19' W 064°38'0 0.0
2019-Feb-13 01:01N 18°19' W 064°38'0 0.1
2019-Feb-13 00:43N 18°19' W 064°38'0 0.0
2019-Feb-12 23:43N 18°19' W 064°38'0 0.0
2019-Feb-12 23:25N 18°19' W 064°38'0 0.0
2019-Feb-12 22:13N 18°19' W 064°38'0 0.0
2019-Feb-12 21:07N 18°19' W 064°38'0 0.0
2019-Feb-12 20:49N 18°19' W 064°38'0 0.1
2019-Feb-12 20:01N 18°19' W 064°38'0 0.2
2019-Feb-12 19:49N 18°19' W 064°38'1 0.3
2019-Feb-12 17:57N 18°20' W 064°38'4 8.2
2019-Feb-12 17:30N 18°22' W 064°36'2 0.3
2019-Feb-12 10:42N 18°25' W 064°36'1 4.1
2019-Feb-12 10:26N 18°25' W 064°35'3 6.9
2019-Feb-12 10:00N 18°24' W 064°32'4 5.7
2019-Feb-12 09:19N 18°20' W 064°32'61 6.5
2019-Feb-12 00:01N 17°55' W 063°34'4 6.5
2019-Feb-11 23:28N 17°53' W 063°30'5 6.6
2019-Feb-11 22:40N 17°51' W 063°25'1 6.6
2019-Feb-11 22:27N 17°51' W 063°23'4 6.8
2019-Feb-11 21:52N 17°50' W 063°19'3 6.7
2019-Feb-11 21:29N 17°50' W 063°17'4 6.6
2019-Feb-11 20:56N 17°49' W 063°13'4 6.8
2019-Feb-11 20:18N 17°48' W 063°09'3 4.0
2019-Feb-11 19:34N 17°47' W 063°06'0 2.6
2019-Feb-11 19:27N 17°46' W 063°06'2 4.3
2019-Feb-11 18:58N 17°45' W 063°04'2 4.8
2019-Feb-11 18:29N 17°45' W 063°01'2 4.8
2019-Feb-11 17:59N 17°44' W 062°59'3 4.9
2019-Feb-11 17:28N 17°44' W 062°56'3 4.8
2019-Feb-11 16:54N 17°44' W 062°53'2 4.9
2019-Feb-11 16:29N 17°44' W 062°51'3 5.0
2019-Feb-11 15:52N 17°43' W 062°48'7 0.2
2019-Feb-10 01:22N 17°47' W 062°54'4 9.3
2019-Feb-10 00:59N 17°49' W 062°57'5 9.4
2019-Feb-10 00:27N 17°53' W 063°01'4 9.2
2019-Feb-10 00:01N 17°55' W 063°04'4 8.0
2019-Feb-09 23:27N 17°60' W 063°05'3 2.5
2019-Feb-09 22:23N 18°01' W 063°03'0 0.0
2019-Feb-09 21:41N 18°01' W 063°03'0 0.0
2019-Feb-09 20:53N 18°01' W 063°03'0 0.0
2019-Feb-09 19:56N 18°01' W 063°03'0 0.0
2019-Feb-09 17:38N 18°01' W 063°03'0 0.0
2019-Feb-09 17:11N 18°01' W 063°03'0 0.0
2019-Feb-09 16:41N 18°01' W 063°03'0 0.0
2019-Feb-09 15:11N 18°01' W 063°03'0 0.0
2019-Feb-09 14:20N 18°01' W 063°03'0 0.0
2019-Feb-09 13:59N 18°01' W 063°03'0 0.0
2019-Feb-09 13:05N 18°01' W 063°03'0 0.0
2019-Feb-09 12:14N 18°01' W 063°03'0 0.0
2019-Feb-09 11:59N 18°01' W 063°03'0 0.0
2019-Feb-09 10:35N 18°01' W 063°03'0 0.0
2019-Feb-09 09:53N 18°01' W 063°03'0 0.8
2019-Feb-09 09:19N 18°00' W 063°03'5 6.8
2019-Feb-09 08:36N 17°59' W 063°08'1 7.9
2019-Feb-09 08:26N 17°59' W 063°09'5 8.0
2019-Feb-09 07:52N 17°58' W 063°14'3 8.0
2019-Feb-09 07:28N 17°57' W 063°17'5 7.9
2019-Feb-09 06:51N 17°56' W 063°22'3 8.0
2019-Feb-09 06:30N 17°56' W 063°25'4 7.4
2019-Feb-09 05:55N 17°52' W 063°27'4 8.3
2019-Feb-09 05:28N 17°51' W 063°23'4 8.1
2019-Feb-09 05:00N 17°51' W 063°19'4 8.1
2019-Feb-09 04:30N 17°52' W 063°15'4 8.2
2019-Feb-09 04:00N 17°52' W 063°10'5 8.2
2019-Feb-09 03:23N 17°53' W 063°05'5 8.5
2019-Feb-09 02:49N 17°54' W 063°00'3 8.4
2019-Feb-09 02:29N 17°54' W 062°57'5 3.9
2019-Feb-09 01:18N 17°54' W 062°52'0 0.0
2019-Feb-09 00:36N 17°54' W 062°52'0 0.0
2019-Feb-08 23:23N 17°54' W 062°52'0 0.0
2019-Feb-08 22:38N 17°54' W 062°52'0 0.0
2019-Feb-08 21:51N 17°54' W 062°52'0 0.0
2019-Feb-08 20:51N 17°54' W 062°52'0 0.0
2019-Feb-08 19:56N 17°54' W 062°52'0 0.0
2019-Feb-08 16:59N 17°54' W 062°52'0 0.0
2019-Feb-08 12:17N 17°54' W 062°52'0 0.0
2019-Feb-08 11:50N 17°54' W 062°52'0 0.0
2019-Feb-08 11:29N 17°54' W 062°52'1 1.4
2019-Feb-08 10:39N 17°54' W 062°53'4 5.6
2019-Feb-08 10:01N 17°51' W 062°55'0 5.0
2019-Feb-08 09:59N 17°51' W 062°55'3 5.7
2019-Feb-08 09:26N 17°48' W 062°57'3 6.2
2019-Feb-08 08:54N 17°45' W 062°58'3 6.4
2019-Feb-08 08:29N 17°43' W 062°59'3 6.5
2019-Feb-08 07:58N 17°40' W 063°01'3 6.6
2019-Feb-08 07:27N 17°37' W 063°03'3 6.6
2019-Feb-08 07:00N 17°34' W 063°04'3 6.6
2019-Feb-08 06:29N 17°31' W 063°05'3 6.0
2019-Feb-08 05:58N 17°28' W 063°05'8 7.0
2019-Feb-08 04:45N 17°22' W 062°59'2 7.2
2019-Feb-08 04:26N 17°20' W 062°58'3 7.3
2019-Feb-08 04:00N 17°18' W 062°55'12 0.7
2019-Feb-07 10:24N 17°13' W 062°44'3 8.1
2019-Feb-07 09:58N 17°10' W 062°43'4 8.1
2019-Feb-07 09:29N 17°06' W 062°42'4 8.1
2019-Feb-07 09:00N 17°02' W 062°40'4 8.1
2019-Feb-07 08:30N 16°58' W 062°39'5 8.9
2019-Feb-07 07:56N 16°54' W 062°37'4 9.6
2019-Feb-07 07:29N 16°50' W 062°35'7 9.8
2019-Feb-07 06:44N 16°44' W 062°30'6 9.7
2019-Feb-07 06:05N 16°39' W 062°27'  

Dump ship's entire track history